Time;durP1;ratioP1;P1;durP2;ratioP2;P2;SDS_P1;SDS_P2;PMS_P1;PMS_P2;Temp;Humidity;BMP_temperature;BMP_pressure;BME280_temperature;BME280_humidity;BME280_pressure;Samples;Min_cycle;Max_cycle;Signal;HPM_P1;HPM_P2
2021/09/06 00:01:09;;;;;;;11.93;7.97;;;15.40;73.60;;;14.40;72.73;96544.88;4949329;28;20059;-65
2021/09/06 00:03:35;;;;;;;10.32;7.90;;;15.30;73.70;;;14.39;73.50;96545.91;4963608;28;20450;-65
2021/09/06 00:06:00;;;;;;;8.85;7.88;;;15.40;73.70;;;14.33;73.27;96547.53;4957559;28;20043;-65
2021/09/06 00:08:26;;;;;;;11.57;9.00;;;15.30;73.90;;;14.30;73.89;96547.94;4950964;28;20137;-65
2021/09/06 00:11:04;;;;;;;12.68;9.50;;;15.20;74.10;;;14.26;74.56;96545.91;4954452;28;20038;-65
2021/09/06 00:13:29;;;;;;;10.65;8.15;;;15.20;74.10;;;14.25;73.52;96546.88;4941806;28;20036;-65
2021/09/06 00:15:55;;;;;;;11.57;9.70;;;15.30;73.90;;;14.24;74.09;96553.19;4962105;28;20083;-65
2021/09/06 00:18:21;;;;;;;12.00;8.98;;;15.20;73.50;;;14.21;72.70;96543.00;4963516;28;20095;-65
2021/09/06 00:20:47;;;;;;;13.68;9.30;;;15.20;73.30;;;14.20;73.15;96549.31;4931761;28;20042;-65
2021/09/06 00:23:12;;;;;;;10.90;9.10;;;15.20;72.90;;;14.20;73.30;96551.97;4965655;28;20039;-65
2021/09/06 00:25:39;;;;;;;11.15;8.68;;;15.20;72.70;;;14.18;72.64;96554.00;4951863;28;20043;-64
2021/09/06 00:28:05;;;;;;;10.02;8.43;;;15.10;72.60;;;14.16;72.58;96550.75;4943444;28;20041;-64
2021/09/06 00:30:30;;;;;;;11.40;8.65;;;15.10;72.40;;;14.14;73.55;96550.13;4941886;28;20023;-64
2021/09/06 00:32:56;;;;;;;10.63;8.32;;;15.10;72.60;;;14.14;73.35;96553.59;4940773;28;20031;-64
2021/09/06 00:35:22;;;;;;;10.02;8.20;;;15.10;72.60;;;14.14;73.22;96548.28;4942837;28;20042;-65
2021/09/06 00:37:48;;;;;;;12.07;9.02;;;15.10;72.70;;;14.12;73.42;96552.16;4944522;28;20031;-65
2021/09/06 00:40:13;;;;;;;9.80;8.20;;;15.10;72.80;;;14.08;73.03;96547.28;4942884;28;20035;-65
2021/09/06 00:42:39;;;;;;;10.68;8.90;;;15.10;72.80;;;14.07;72.87;96547.47;4966267;28;20057;-65
2021/09/06 00:45:06;;;;;;;10.70;8.77;;;15.10;72.90;;;14.01;72.43;96549.06;4956665;28;20023;-65
2021/09/06 00:47:34;;;;;;;9.38;8.25;;;15.10;73.00;;;13.99;73.26;96551.09;4972714;28;20490;-65
2021/09/06 00:50:02;;;;;;;10.90;8.45;;;15.00;73.10;;;13.96;72.50;96546.22;4980119;28;20121;-64
2021/09/06 00:52:28;;;;;;;10.00;8.88;;;15.00;73.20;;;13.93;73.56;96543.97;4939860;28;20458;-65
2021/09/06 00:54:54;;;;;;;10.57;8.90;;;15.00;73.30;;;13.90;73.77;96541.72;4965104;28;20526;-65
2021/09/06 00:57:20;;;;;;;11.15;8.90;;;14.90;73.40;;;13.87;73.38;96544.75;4965500;28;20035;-64
2021/09/06 00:59:45;;;;;;;11.43;8.80;;;14.80;73.70;;;13.83;72.97;96545.38;4961838;28;20031;-64
2021/09/06 01:02:11;;;;;;;10.18;8.68;;;14.80;74.00;;;13.79;73.26;96539.63;4966103;28;20070;-64
2021/09/06 01:04:37;;;;;;;11.52;8.55;;;14.80;74.10;;;13.80;73.66;96543.91;4943465;28;20068;-65
2021/09/06 01:07:03;;;;;;;10.82;8.88;;;14.90;74.00;;;13.79;73.58;96544.91;4961375;28;20114;-65
2021/09/06 01:09:28;;;;;;;11.73;9.73;;;14.90;73.80;;;13.77;74.46;96547.75;4961061;28;20031;-65
2021/09/06 01:11:54;;;;;;;9.73;8.70;;;14.80;73.90;;;13.78;74.04;96543.28;4953294;28;20058;-65
2021/09/06 01:14:20;;;;;;;11.10;9.43;;;14.80;73.90;;;13.77;74.16;96541.66;4968121;28;20039;-65
2021/09/06 01:16:46;;;;;;;11.95;9.35;;;14.90;73.90;;;13.77;73.77;96541.66;4942580;28;20420;-65
2021/09/06 01:19:11;;;;;;;10.77;9.63;;;14.80;73.90;;;13.76;73.36;96540.03;4944181;28;20043;-65
2021/09/06 01:21:38;;;;;;;11.95;8.93;;;14.80;74.10;;;13.74;74.22;96544.72;4947452;28;20349;-65
2021/09/06 01:24:04;;;;;;;11.88;9.52;;;14.70;73.90;;;13.71;73.50;96545.09;4968991;28;20698;-64
2021/09/06 01:26:29;;;;;;;9.80;8.80;;;14.70;73.70;;;13.65;73.70;96548.53;4967754;28;20031;-65
2021/09/06 01:28:55;;;;;;;13.20;9.20;;;14.60;74.10;;;13.59;73.65;96544.06;4968628;28;20510;-65
2021/09/06 01:31:23;;;;;;;10.68;8.73;;;14.50;74.20;;;13.54;73.48;96552.53;4951459;28;20059;-65
2021/09/06 01:33:48;;;;;;;11.63;8.55;;;14.50;74.10;;;13.48;74.33;96550.69;4966827;28;20051;-65
2021/09/06 01:36:14;;;;;;;9.75;8.23;;;14.50;74.10;;;13.44;74.43;96550.28;4966636;28;20050;-64
2021/09/06 01:38:40;;;;;;;10.90;8.85;;;14.50;74.20;;;13.39;74.57;96543.94;4950168;28;20091;-65
2021/09/06 01:41:05;;;;;;;11.75;8.65;;;14.40;74.30;;;13.35;74.65;96550.63;4966050;28;20118;-65
2021/09/06 01:43:31;;;;;;;10.80;8.85;;;14.40;74.30;;;13.31;74.11;96544.09;4966586;28;20062;-64
2021/09/06 01:45:57;;;;;;;9.55;8.52;;;14.40;74.20;;;13.29;74.52;96549.56;4971156;28;20031;-65
2021/09/06 01:48:23;;;;;;;11.35;9.30;;;14.40;74.30;;;13.25;75.06;96547.53;4984668;28;20491;-65
2021/09/06 01:50:48;;;;;;;9.57;8.43;;;14.40;74.30;;;13.22;74.10;96556.66;4966131;28;20030;-64
2021/09/06 01:53:14;;;;;;;11.27;8.27;;;14.30;74.40;;;13.18;74.52;96564.16;4988411;28;21449;-64
2021/09/06 01:55:40;;;;;;;13.30;8.55;;;14.20;74.40;;;13.15;74.75;96553.13;4981051;28;20106;-65
2021/09/06 01:58:05;;;;;;;10.20;8.40;;;14.20;74.60;;;13.12;74.90;96553.50;4950683;28;20034;-64
2021/09/06 02:00:31;;;;;;;10.90;8.02;;;14.10;74.70;;;13.08;75.16;96558.34;4964553;28;20038;-65
2021/09/06 02:02:57;;;;;;;10.40;8.13;;;14.10;74.80;;;13.03;74.80;96549.38;4951393;28;20039;-65
2021/09/06 02:05:23;;;;;;;9.98;7.63;;;14.10;74.80;;;12.99;74.83;96558.69;4967179;28;20076;-65
2021/09/06 02:07:51;;;;;;;8.23;7.43;;;14.10;74.80;;;12.96;74.99;96559.09;4967905;28;20133;-64
2021/09/06 02:10:17;;;;;;;10.48;7.65;;;14.00;74.80;;;12.91;75.39;96556.22;4965213;28;20141;-65
2021/09/06 02:12:42;;;;;;;9.88;7.93;;;14.00;74.90;;;12.88;74.99;96558.22;4950103;28;20122;-64
2021/09/06 02:15:09;;;;;;;10.43;7.55;;;14.00;74.90;;;12.86;75.85;96559.41;4979407;28;20037;-64
2021/09/06 02:17:35;;;;;;;9.55;7.80;;;13.90;75.00;;;12.85;75.97;96563.88;4967610;28;20097;-65
2021/09/06 02:20:00;;;;;;;10.23;7.80;;;13.90;74.90;;;12.83;75.88;96565.88;4952050;28;20549;-64
2021/09/06 02:22:26;;;;;;;9.88;7.50;;;13.90;75.00;;;12.81;75.81;96565.28;4984952;28;20039;-65
2021/09/06 02:24:52;;;;;;;10.88;7.13;;;13.90;75.00;;;12.77;76.11;96569.31;4968759;28;20469;-64
2021/09/06 02:27:18;;;;;;;9.63;7.55;;;13.90;75.20;;;12.73;75.88;96565.41;4960158;28;20043;-64
2021/09/06 02:29:44;;;;;;;10.27;7.55;;;13.90;75.30;;;12.71;75.51;96566.63;4965543;28;20039;-65
2021/09/06 02:32:10;;;;;;;8.90;7.88;;;13.80;75.50;;;12.70;76.02;96565.00;4951605;28;20062;-64
2021/09/06 02:34:35;;;;;;;9.60;7.70;;;13.80;75.60;;;12.68;76.58;96562.53;4946574;28;20382;-64
2021/09/06 02:37:02;;;;;;;8.63;7.60;;;13.80;75.80;;;12.66;76.23;96561.06;4966907;28;20039;-65
2021/09/06 02:39:27;;;;;;;12.05;7.85;;;13.80;75.80;;;12.66;76.35;96563.72;4935168;28;20039;-65
2021/09/06 02:41:58;;;;;;;9.90;8.90;;;13.80;75.90;;;12.61;76.51;96556.38;4960055;28;20514;-64
2021/09/06 02:44:26;;;;;;;9.73;8.57;;;13.70;75.80;;;12.60;76.54;96565.28;4947748;28;20035;-65
2021/09/06 02:46:51;;;;;;;8.80;7.85;;;13.70;76.00;;;12.60;76.56;96565.28;4951685;28;20034;-65
2021/09/06 02:49:17;;;;;;;10.80;8.30;;;13.70;75.90;;;12.57;76.36;96563.03;4951984;28;20057;-67
2021/09/06 02:51:43;;;;;;;10.15;9.02;;;13.70;76.20;;;12.56;76.63;96569.31;4950128;29;20047;-65
2021/09/06 02:54:09;;;;;;;10.45;9.05;;;13.60;76.10;;;12.52;76.66;96566.25;4949142;28;20042;-64
2021/09/06 02:56:34;;;;;;;10.00;8.63;;;13.60;76.10;;;12.50;76.57;96564.81;4953052;28;20043;-65
2021/09/06 02:59:00;;;;;;;9.40;8.15;;;13.60;76.20;;;12.49;76.73;96571.09;4970394;28;20105;-64
2021/09/06 03:01:26;;;;;;;10.70;9.10;;;13.60;76.20;;;12.46;76.95;96563.56;4962514;28;20534;-64
2021/09/06 03:03:51;;;;;;;11.43;8.82;;;13.60;76.30;;;12.44;76.80;96573.47;4969946;28;20491;-65
2021/09/06 03:06:17;;;;;;;9.98;8.98;;;13.60;76.50;;;12.43;77.06;96570.00;4966084;28;20039;-65
2021/09/06 03:08:43;;;;;;;11.88;10.25;;;13.60;76.60;;;12.40;77.31;96564.28;4953308;28;20066;-64
2021/09/06 03:11:09;;;;;;;12.85;11.00;;;13.50;77.10;;;12.37;78.07;96564.69;4953321;28;20047;-64
2021/09/06 03:13:34;;;;;;;15.68;12.02;;;13.50;77.60;;;12.37;77.98;96570.78;4969388;28;20038;-64
2021/09/06 03:16:00;;;;;;;14.15;11.32;;;13.60;77.60;;;12.38;78.39;96558.41;4969899;28;20196;-65
2021/09/06 03:18:26;;;;;;;12.50;11.02;;;13.50;77.50;;;12.37;77.77;96565.50;4965657;28;20039;-65
2021/09/06 03:20:52;;;;;;;11.48;10.30;;;13.60;76.80;;;12.34;77.88;96559.78;4966824;28;20109;-65
2021/09/06 03:23:17;;;;;;;13.13;10.65;;;13.50;76.70;;;12.30;77.75;96559.34;4975956;28;20101;-64
2021/09/06 03:25:43;;;;;;;13.55;10.77;;;13.40;76.90;;;12.26;78.38;96558.91;4970667;28;20034;-64
2021/09/06 03:28:09;;;;;;;14.70;11.57;;;13.30;77.10;;;12.24;77.97;96568.03;4953163;28;20030;-64
2021/09/06 03:30:34;;;;;;;13.45;11.55;;;13.40;77.40;;;12.22;78.39;96562.94;4970266;28;20042;-64
2021/09/06 03:33:00;;;;;;;12.38;11.02;;;13.40;77.50;;;12.22;78.62;96565.56;4950846;28;20059;-64
2021/09/06 03:35:26;;;;;;;15.05;12.85;;;13.40;77.70;;;12.23;78.46;96561.13;4969063;28;20062;-64
2021/09/06 03:37:52;;;;;;;14.13;12.63;;;13.40;77.90;;;12.26;78.88;96564.19;4952577;28;20057;-65
2021/09/06 03:40:17;;;;;;;13.30;11.90;;;13.50;77.80;;;12.26;79.19;96558.91;4957588;28;20042;-65
2021/09/06 03:42:43;;;;;;;13.88;12.38;;;13.50;77.80;;;12.24;78.77;96560.94;4962845;28;20034;-64
2021/09/06 03:45:09;;;;;;;14.82;12.82;;;13.40;77.70;;;12.23;79.12;96563.75;4965280;28;20062;-65
2021/09/06 03:47:35;;;;;;;14.82;12.60;;;13.40;77.80;;;12.22;79.05;96557.66;4997740;28;20101;-64
2021/09/06 03:50:00;;;;;;;13.55;12.15;;;13.40;77.60;;;12.21;78.69;96557.81;4938105;29;20063;-67
2021/09/06 03:52:26;;;;;;;15.10;11.95;;;13.40;77.40;;;12.20;78.54;96559.63;4958257;28;20034;-67
2021/09/06 03:54:52;;;;;;;14.55;12.80;;;13.40;77.30;;;12.17;78.41;96560.03;4955034;28;20106;-67
2021/09/06 03:57:17;;;;;;;14.93;12.27;;;13.30;77.20;;;12.14;78.37;96560.41;4953274;28;20450;-68
2021/09/06 03:59:43;;;;;;;14.38;11.93;;;13.30;77.20;;;12.12;78.86;96569.50;4969782;28;20062;-67
2021/09/06 04:02:09;;;;;;;13.60;10.38;;;13.30;77.30;;;12.09;78.63;96561.97;4949895;28;20073;-67
2021/09/06 04:04:35;;;;;;;12.32;10.57;;;13.30;76.60;;;12.06;78.30;96565.81;4933981;28;20043;-68
2021/09/06 04:07:00;;;;;;;12.00;10.20;;;13.20;76.60;;;12.03;78.01;96558.25;4959647;28;20081;-67
2021/09/06 04:09:28;;;;;;;11.85;10.60;;;13.20;76.90;;;12.00;78.71;96557.81;4969697;28;20165;-67
2021/09/06 04:11:54;;;;;;;15.93;11.25;;;13.10;76.90;;;11.96;78.89;96567.91;4969643;28;20121;-67
2021/09/06 04:14:21;;;;;;;14.52;11.45;;;13.10;77.10;;;11.94;78.94;96565.44;4952723;28;20039;-67
2021/09/06 04:16:47;;;;;;;14.20;11.40;;;13.10;77.30;;;11.95;78.80;96576.81;4963059;28;20198;-67
2021/09/06 04:19:13;;;;;;;13.85;12.45;;;13.10;77.50;;;11.96;79.43;96570.53;4950431;28;20043;-67
2021/09/06 04:21:39;;;;;;;54.47;46.13;;;13.10;77.70;;;11.98;79.96;96570.34;4949878;28;20490;-67
2021/09/06 04:24:05;;;;;;;37.60;31.17;;;13.20;78.60;;;12.01;80.23;96570.00;4950448;28;20533;-67
2021/09/06 04:26:30;;;;;;;25.25;18.77;;;13.30;78.90;;;12.01;79.75;96565.56;4937252;28;20398;-67
2021/09/06 04:28:56;;;;;;;19.27;15.63;;;13.30;78.70;;;12.03;79.73;96575.91;4953514;28;20081;-67
2021/09/06 04:31:22;;;;;;;17.20;15.40;;;13.30;78.40;;;12.03;79.93;96574.09;4953264;28;20050;-67
2021/09/06 04:33:48;;;;;;;19.38;15.60;;;13.20;78.20;;;12.00;79.89;96578.91;4953338;28;20122;-67
2021/09/06 04:36:14;;;;;;;21.85;16.23;;;13.10;78.30;;;11.99;79.58;96577.25;4951675;28;20449;-67
2021/09/06 04:38:39;;;;;;;16.27;13.85;;;13.10;77.90;;;11.94;78.91;96569.91;4954621;28;20046;-67
2021/09/06 04:41:05;;;;;;;13.85;12.40;;;13.10;77.50;;;11.92;79.35;96578.00;4953301;28;20613;-67
2021/09/06 04:43:31;;;;;;;16.10;12.48;;;13.10;77.40;;;11.89;78.65;96578.38;4966518;28;20506;-67
2021/09/06 04:45:57;;;;;;;13.23;11.13;;;13.00;77.00;;;11.83;79.25;96583.59;4953712;28;20032;-67
2021/09/06 04:48:22;;;;;;;13.32;10.23;;;13.00;76.90;;;11.81;78.39;96585.59;4955692;28;20498;-67
2021/09/06 04:50:48;;;;;;;11.52;9.68;;;13.00;76.80;;;11.78;78.59;96583.28;4955166;28;20085;-67
2021/09/06 04:53:14;;;;;;;16.80;12.23;;;13.00;77.00;;;11.78;78.63;96591.19;4956490;28;20040;-67
2021/09/06 04:55:39;;;;;;;21.58;16.70;;;13.00;76.70;;;11.76;78.29;96593.19;4956788;28;20038;-67
2021/09/06 04:58:05;;;;;;;13.30;10.55;;;13.00;76.70;;;11.75;78.89;96594.19;4953468;28;20043;-67
2021/09/06 05:00:31;;;;;;;11.82;10.32;;;13.00;76.70;;;11.73;78.71;96596.19;4952783;28;20046;-67
2021/09/06 05:02:57;;;;;;;13.88;11.93;;;13.00;77.00;;;11.73;79.30;96599.63;4954754;28;20118;-67
2021/09/06 05:05:22;;;;;;;15.35;12.00;;;13.00;77.20;;;11.71;79.32;96600.81;4937531;29;20031;-67
2021/09/06 05:07:48;;;;;;;13.60;11.25;;;13.00;77.30;;;11.70;79.50;96605.28;4950671;28;20050;-67
2021/09/06 05:10:14;;;;;;;15.85;13.38;;;13.00;77.70;;;11.70;79.94;96607.09;4956992;28;20537;-67
2021/09/06 05:12:40;;;;;;;17.02;13.55;;;13.00;78.10;;;11.74;79.92;96605.72;4971900;28;20185;-67
2021/09/06 05:15:06;;;;;;;18.05;13.88;;;13.10;78.30;;;11.76;80.33;96615.06;4972645;28;20023;-67
2021/09/06 05:17:32;;;;;;;39.97;31.63;;;13.10;78.60;;;11.81;80.90;96611.94;4961048;28;20499;-68
2021/09/06 05:19:57;;;;;;;51.55;42.17;;;13.20;78.80;;;11.87;81.06;96613.84;4953253;28;20062;-68
2021/09/06 05:22:23;;;;;;;33.75;27.60;;;13.30;78.90;;;11.92;81.07;96619.38;4953414;28;20032;-68
2021/09/06 05:24:53;;;;;;;21.50;17.40;;;13.40;78.50;;;11.96;80.63;96623.25;4937299;29;20089;-67
2021/09/06 05:27:20;;;;;;;21.58;18.77;;;13.40;78.20;;;12.00;81.28;96619.28;4955948;28;20035;-67
2021/09/06 05:29:46;;;;;;;18.95;15.07;;;13.50;78.00;;;12.03;81.07;96621.53;4963922;28;20407;-67
2021/09/06 05:32:11;;;;;;;16.20;14.48;;;13.50;77.80;;;12.06;80.13;96621.16;4952813;28;20064;-68
2021/09/06 05:34:37;;;;;;;17.17;13.13;;;13.50;77.70;;;12.08;80.36;96621.81;4953815;28;20039;-68
2021/09/06 05:37:03;;;;;;;23.45;19.52;;;13.50;77.60;;;12.10;80.83;96627.69;4971843;28;20105;-67
2021/09/06 05:39:29;;;;;;;20.38;17.85;;;13.60;77.40;;;12.16;80.70;96628.78;4971904;28;20038;-68
2021/09/06 05:41:54;;;;;;;20.73;16.20;;;13.70;77.00;;;12.21;80.35;96635.13;4971932;28;20089;-67
2021/09/06 05:44:20;;;;;;;16.67;13.88;;;13.80;76.80;;;12.27;79.98;96634.41;4973335;28;20050;-68
2021/09/06 05:46:46;;;;;;;17.65;14.70;;;13.90;76.70;;;12.36;80.60;96626.38;4955803;28;20073;-68
2021/09/06 05:49:12;;;;;;;18.45;14.32;;;14.00;76.70;;;12.44;80.41;96634.16;4972181;28;20023;-67
2021/09/06 05:51:37;;;;;;;16.95;13.88;;;14.10;76.60;;;12.50;80.83;96633.41;4971397;28;20040;-68
2021/09/06 05:54:03;;;;;;;15.05;12.23;;;14.10;76.60;;;12.56;80.85;96640.56;4971640;28;20035;-68
2021/09/06 05:56:29;;;;;;;11.73;10.13;;;14.20;76.40;;;12.62;80.17;96646.91;4970485;28;20034;-68
2021/09/06 05:58:55;;;;;;;13.32;9.10;;;14.20;76.00;;;12.65;80.25;96643.91;4954230;28;20046;-67
2021/09/06 06:01:20;;;;;;;11.13;9.00;;;14.30;75.60;;;12.70;79.84;96645.00;4920559;29;20036;-67
2021/09/06 06:03:46;;;;;;;11.52;8.57;;;14.40;75.30;;;12.79;79.79;96645.66;4936523;29;20502;-67
2021/09/06 06:06:12;;;;;;;12.30;9.27;;;14.50;75.20;;;12.85;80.02;96645.72;4952084;28;20039;-68
2021/09/06 06:08:38;;;;;;;14.13;11.18;;;14.60;75.40;;;12.95;80.92;96649.88;4969387;28;20035;-68
2021/09/06 06:11:03;;;;;;;12.95;11.57;;;14.70;76.30;;;13.02;80.45;96653.38;4955622;28;20105;-68
2021/09/06 06:13:29;;;;;;;18.08;13.60;;;14.80;76.40;;;13.12;80.63;96652.03;4955278;28;20042;-67
2021/09/06 06:15:55;;;;;;;20.70;18.50;;;14.90;77.00;;;13.21;80.81;96647.47;4971387;28;20090;-68
2021/09/06 06:18:20;;;;;;;21.92;17.63;;;15.00;77.10;;;13.29;82.04;96646.50;4939273;28;20522;-68
2021/09/06 06:20:46;;;;;;;31.52;27.42;;;15.10;77.50;;;13.38;81.51;96648.84;4963388;28;20110;-67
2021/09/06 06:23:12;;;;;;;39.05;31.92;;;15.20;77.70;;;13.49;81.79;96655.41;4971173;28;20081;-68
2021/09/06 06:25:38;;;;;;;47.67;38.38;;;15.30;77.60;;;13.58;83.04;96661.34;4954849;28;20134;-67
2021/09/06 06:28:04;;;;;;;32.35;28.83;;;15.40;77.30;;;13.68;81.88;96665.28;4955319;28;20065;-68
2021/09/06 06:30:29;;;;;;;25.88;23.05;;;15.50;77.20;;;13.77;82.85;96663.28;4961907;28;20122;-68
2021/09/06 06:32:55;;;;;;;22.90;17.90;;;15.60;76.90;;;13.86;82.68;96671.91;4954636;28;20097;-68
2021/09/06 06:35:21;;;;;;;23.25;18.05;;;15.70;76.60;;;13.97;81.63;96669.50;4954721;28;20035;-68
2021/09/06 06:37:46;;;;;;;20.80;17.23;;;15.80;76.40;;;14.04;81.48;96667.72;4955032;28;20569;-68
2021/09/06 06:40:13;;;;;;;19.17;16.52;;;15.90;76.00;;;14.14;81.76;96671.81;4950928;28;20063;-67
2021/09/06 06:42:39;;;;;;;21.02;17.73;;;16.00;75.90;;;14.25;81.64;96673.91;4962829;28;20050;-68
2021/09/06 06:45:05;;;;;;;22.98;18.25;;;16.10;75.60;;;14.34;81.32;96673.53;4971123;28;20038;-68
2021/09/06 06:47:31;;;;;;;19.63;17.50;;;16.20;74.90;;;14.47;80.60;96685.19;4954303;28;20414;-68
2021/09/06 06:49:57;;;;;;;22.50;18.20;;;16.30;74.70;;;14.57;80.32;96680.34;4967438;28;20035;-67
2021/09/06 06:52:23;;;;;;;28.00;21.95;;;16.50;74.70;;;14.69;79.47;96684.03;4952173;28;20046;-68
2021/09/06 06:54:48;;;;;;;21.73;18.45;;;16.60;74.10;;;14.82;80.39;96689.38;4944496;28;20035;-68
2021/09/06 06:57:14;;;;;;;21.45;18.23;;;16.70;74.00;;;14.96;79.60;96684.94;4954718;28;20046;-67
2021/09/06 06:59:40;;;;;;;19.75;16.40;;;16.90;73.80;;;15.10;80.27;96689.22;4970566;28;20109;-68
2021/09/06 07:02:05;;;;;;;21.08;17.02;;;17.10;73.20;;;15.27;78.99;96689.63;4970153;28;20043;-68
2021/09/06 07:04:31;;;;;;;18.33;15.48;;;17.30;73.10;;;15.44;78.77;96682.09;4964042;28;20055;-68
2021/09/06 07:06:57;;;;;;;19.88;15.80;;;17.60;71.70;;;15.59;78.53;96685.34;4950285;28;20031;-68
2021/09/06 07:09:23;;;;;;;21.02;16.02;;;17.70;70.20;;;15.76;77.90;96689.22;4951088;29;20111;-68
2021/09/06 07:11:48;;;;;;;18.00;15.32;;;17.90;69.30;;;15.89;77.69;96686.53;4950895;29;20039;-67
2021/09/06 07:14:14;;;;;;;26.88;20.38;;;18.00;68.50;;;16.07;76.21;96687.69;4938110;28;20039;-68
2021/09/06 07:16:40;;;;;;;24.65;20.15;;;18.30;68.00;;;16.25;76.22;96677.22;4937556;28;20125;-68
2021/09/06 07:19:05;;;;;;;19.63;15.95;;;18.60;67.20;;;16.47;75.96;96688.38;4936685;28;20065;-68
2021/09/06 07:21:31;;;;;;;24.35;16.48;;;18.90;66.40;;;16.69;75.67;96688.91;4953881;28;20050;-68
2021/09/06 07:23:57;;;;;;;22.90;16.23;;;19.20;65.70;;;16.91;74.91;96689.41;4969221;28;20058;-68
2021/09/06 07:26:23;;;;;;;20.55;15.93;;;19.40;64.90;;;17.15;74.90;96689.44;4950205;28;20098;-68
2021/09/06 07:28:48;;;;;;;18.00;14.82;;;19.70;64.30;;;17.37;73.92;96699.69;4919300;29;20412;-68
2021/09/06 07:31:14;;;;;;;17.63;13.93;;;19.80;62.40;;;17.58;73.18;96699.31;4934882;29;20058;-68
2021/09/06 07:33:40;;;;;;;18.02;14.68;;;20.10;62.80;;;17.82;72.59;96695.03;4951677;28;20063;-68
2021/09/06 07:36:06;;;;;;;18.25;14.43;;;20.40;61.90;;;18.05;72.13;96700.53;4951926;28;20412;-68
2021/09/06 07:38:31;;;;;;;16.90;13.77;;;20.70;61.40;;;18.28;72.23;96697.19;4953223;28;20459;-68
2021/09/06 07:40:57;;;;;;;18.17;14.32;;;20.90;60.80;;;18.53;71.84;96694.44;4953586;28;20498;-66
2021/09/06 07:43:23;;;;;;;16.65;13.55;;;21.30;60.00;;;18.77;71.34;96697.25;4953461;28;20076;-66
2021/09/06 07:45:50;;;;;;;17.30;12.75;;;21.60;59.10;;;19.03;69.54;96704.09;4970612;28;20047;-66
2021/09/06 07:48:15;;;;;;;16.98;13.75;;;21.90;58.20;;;19.27;69.41;96701.25;4950633;29;20031;-66
2021/09/06 07:50:42;;;;;;;18.02;13.75;;;22.20;57.10;;;19.53;69.77;96705.38;4933803;29;20075;-66
2021/09/06 07:53:07;;;;;;;23.13;16.27;;;22.60;56.30;;;19.77;68.53;96710.72;4934637;29;20039;-66
2021/09/06 07:55:34;;;;;;;23.05;13.07;;;22.90;56.20;;;20.01;67.89;96722.22;4946595;28;20065;-66
2021/09/06 07:58:00;;;;;;;39.47;29.70;;;23.10;54.90;;;20.23;67.27;96719.75;4953857;28;20031;-66
2021/09/06 08:00:25;;;;;;;18.40;12.68;;;23.40;54.00;;;20.48;65.81;96717.66;4969085;28;20098;-66
2021/09/06 08:02:51;;;;;;;16.60;11.50;;;23.60;52.90;;;20.72;66.27;96708.50;4948837;29;20495;-66
2021/09/06 08:05:20;;;;;;;14.15;12.13;;;23.90;52.70;;;20.93;63.74;96706.22;4954671;28;20089;-66
2021/09/06 08:07:47;;;;;;;15.45;11.68;;;24.10;51.90;;;21.13;65.16;96714.63;4931655;29;20078;-66
2021/09/06 08:10:13;;;;;;;17.00;11.57;;;24.30;51.20;;;21.33;63.46;96715.00;4950638;28;20050;-66
2021/09/06 08:12:39;;;;;;;14.90;10.98;;;24.50;50.40;;;21.51;63.69;96710.47;4933529;28;20035;-66
2021/09/06 08:15:06;;;;;;;18.50;11.77;;;24.60;50.60;;;21.71;61.74;96718.81;4940694;28;20042;-66
2021/09/06 08:17:34;;;;;;;14.88;11.73;;;24.90;49.00;;;21.89;62.14;96715.88;4970417;28;20037;-66
2021/09/06 08:20:13;;;;;;;15.48;11.77;;;25.00;48.30;;;22.08;60.59;96710.28;4973609;28;20027;-66
2021/09/06 08:22:39;;;;;;;15.05;11.60;;;25.10;48.00;;;22.29;61.24;96706.81;4972604;28;20574;-66
2021/09/06 08:25:06;;;;;;;15.15;12.32;;;25.30;48.00;;;22.44;60.21;96709.72;4965504;28;20114;-66
2021/09/06 08:27:32;;;;;;;13.82;11.27;;;25.40;47.30;;;22.66;59.30;96706.22;4938140;29;20031;-66
2021/09/06 08:29:57;;;;;;;17.02;12.90;;;25.60;47.70;;;22.86;59.09;96707.28;4922472;29;20521;-67
2021/09/06 08:32:23;;;;;;;15.75;13.40;;;25.80;46.40;;;23.00;58.84;96707.69;4953147;28;20059;-67
2021/09/06 08:34:49;;;;;;;15.43;11.55;;;25.90;46.50;;;23.18;58.19;96720.75;4958006;28;20045;-66
2021/09/06 08:37:22;;;;;;;15.07;12.70;;;26.10;46.60;;;23.36;54.87;96713.41;4957356;28;20071;-66
2021/09/06 08:39:48;;;;;;;15.65;12.63;;;26.30;45.40;;;23.46;57.85;96716.16;4957191;28;20039;-66
2021/09/06 08:42:14;;;;;;;16.92;12.45;;;26.30;45.90;;;23.63;56.94;96722.25;4940700;28;20398;-66
2021/09/06 08:44:41;;;;;;;14.55;11.93;;;26.50;45.10;;;23.78;56.11;96725.06;4956070;28;20058;-66
2021/09/06 08:47:06;;;;;;;16.33;12.02;;;26.70;45.80;;;24.06;56.09;96725.81;4972922;28;20474;-66
2021/09/06 08:49:32;;;;;;;15.10;11.63;;;27.00;45.10;;;24.26;55.90;96725.94;4972466;28;20027;-66
2021/09/06 08:51:59;;;;;;;13.02;11.43;;;27.10;45.10;;;24.51;55.81;96721.78;4956941;28;20623;-66
2021/09/06 08:54:24;;;;;;;14.73;11.23;;;27.30;44.80;;;24.75;55.64;96722.94;4956255;28;20118;-66
2021/09/06 08:56:50;;;;;;;17.15;11.63;;;27.60;44.10;;;24.94;54.65;96718.72;4956836;28;20131;-66
2021/09/06 08:59:20;;;;;;;15.90;11.45;;;27.70;43.20;;;25.17;51.79;96713.94;4956728;28;20065;-67
2021/09/06 09:01:51;;;;;;;15.52;11.50;;;28.00;41.70;;;25.41;53.26;96722.31;4972606;28;20037;-66
2021/09/06 09:04:27;;;;;;;13.77;10.65;;;28.10;41.70;;;25.64;49.93;96719.91;4971643;28;20419;-66
2021/09/06 09:06:58;;;;;;;16.00;11.00;;;28.40;41.50;;;25.87;50.25;96723.16;4937249;29;20023;-67
2021/09/06 09:09:38;;;;;;;15.23;10.98;;;28.50;42.10;;;26.07;47.93;96717.75;4937995;29;20507;-66
2021/09/06 09:12:12;;;;;;;;;;;28.60;39.90;;;26.27;48.43;96721.50;4938485;29;20039;-66
2021/09/06 09:14:41;;;;;;;12.52;10.68;;;28.70;41.00;;;26.53;50.30;96714.97;4952375;28;19926;-67
2021/09/06 09:17:07;;;;;;;11.98;10.05;;;29.10;41.10;;;26.78;50.68;96712.16;4961130;28;20031;-66
2021/09/06 09:19:33;;;;;;;12.95;10.15;;;29.30;40.10;;;27.05;49.79;96719.06;4918134;29;20380;-66
2021/09/06 09:22:03;;;;;;;13.32;9.88;;;29.50;39.30;;;27.23;46.92;96713.00;4949684;28;20115;-66
2021/09/06 09:24:28;;;;;;;12.50;9.73;;;29.70;38.90;;;27.48;48.76;96719.31;4952309;28;20155;-66
2021/09/06 09:27:02;;;;;;;16.98;11.27;;;30.00;39.40;;;27.69;44.94;96712.72;4956191;28;20034;-66
2021/09/06 09:29:28;;;;;;;14.20;12.70;;;30.20;37.80;;;27.89;46.62;96720.66;4971454;28;20081;-66
2021/09/06 09:31:55;;;;;;;11.68;9.63;;;30.30;37.60;;;28.13;45.57;96725.28;4955972;28;20039;-66
2021/09/06 09:34:21;;;;;;;11.75;8.65;;;30.60;37.00;;;28.33;45.31;96714.28;4955210;28;20105;-67
2021/09/06 09:36:47;;;;;;;11.77;9.05;;;30.80;37.00;;;28.54;45.75;96720.28;4954278;28;20034;-66
2021/09/06 09:39:14;;;;;;;11.02;9.15;;;31.10;36.90;;;28.70;44.91;96712.75;4972491;28;20039;-66
2021/09/06 09:41:42;;;;;;;12.18;8.95;;;31.10;35.70;;;28.87;43.45;96718.53;4971381;28;20058;-66
2021/09/06 09:44:22;;;;;;;11.13;9.45;;;31.20;36.20;;;29.03;41.62;96714.53;4972414;28;20031;-66
2021/09/06 09:47:02;;;;;;;11.27;10.05;;;31.40;35.70;;;29.21;41.67;96704.81;4953196;28;20062;-66
2021/09/06 09:49:29;;;;;;;11.30;10.10;;;31.60;36.40;;;29.34;42.91;96705.97;4953249;28;20063;-66
2021/09/06 09:51:56;;;;;;;10.90;9.38;;;31.60;35.80;;;29.53;42.74;96702.16;4936848;29;20439;-66
2021/09/06 09:54:21;;;;;;;11.25;8.52;;;32.00;35.60;;;29.77;42.31;96715.59;4968125;28;20055;-66
2021/09/06 09:56:47;;;;;;;10.45;7.82;;;32.30;34.70;;;29.98;41.83;96712.53;4957040;28;20041;-66
2021/09/06 09:59:14;;;;;;;11.27;8.98;;;32.50;34.20;;;30.16;41.58;96709.00;4923282;29;20035;-66
2021/09/06 10:01:45;;;;;;;10.20;8.98;;;32.80;34.00;;;30.41;39.29;96713.94;4951628;28;20094;-66
2021/09/06 10:04:12;;;;;;;11.30;8.48;;;32.80;33.40;;;30.73;40.10;96715.75;4936961;29;20034;-67
2021/09/06 10:06:38;;;;;;;11.73;9.05;;;33.20;33.30;;;31.13;40.88;96712.50;4935535;28;20039;-67